Time;durP1;ratioP1;P1;durP2;ratioP2;P2;SDS_P1;SDS_P2;PMS_P1;PMS_P2;Temp;Humidity;BMP_temperature;BMP_pressure;BME280_temperature;BME280_humidity;BME280_pressure;Samples;Min_cycle;Max_cycle;Signal;HPM_P1;HPM_P2
2024/01/05 00:00:57;;;;;;;3.27;1.27;;;;;16.70;98990.00;;;;2077291;28;20592;-65
2024/01/05 00:01:57;;;;;;;1.93;1.10;;;;;16.70;98992.00;;;;2069291;28;20225;-65
2024/01/05 00:03:00;;;;;;;2.73;1.30;;;;;16.70;98993.00;;;;2072199;28;20226;-65
2024/01/05 00:04:01;;;;;;;3.25;1.27;;;;;16.70;98984.00;;;;2077013;28;20313;-65
2024/01/05 00:05:01;;;;;;;2.60;1.43;;;;;16.70;98978.00;;;;2073735;28;20211;-65
2024/01/05 00:06:01;;;;;;;4.13;1.10;;;;;16.70;98985.00;;;;2071996;28;20581;-65
2024/01/05 00:07:02;;;;;;;3.60;1.57;;;;;16.70;98977.00;;;;2068594;28;20581;-65
2024/01/05 00:08:02;;;;;;;2.50;1.10;;;;;16.70;98979.00;;;;2078790;28;20214;-65
2024/01/05 00:09:03;;;;;;;3.70;1.30;;;;;16.70;98974.00;;;;2076180;28;20694;-65
2024/01/05 00:10:03;;;;;;;3.17;1.37;;;;;16.70;98973.00;;;;2073861;28;20214;-64
2024/01/05 00:11:04;;;;;;;4.90;1.43;;;;;16.70;98977.00;;;;2076315;28;20205;-65
2024/01/05 00:12:04;;;;;;;2.93;1.10;;;;;16.70;98976.00;;;;2070374;28;20232;-65
2024/01/05 00:13:05;;;;;;;2.07;1.10;;;;;16.70;98977.00;;;;2079918;28;20698;-65
2024/01/05 00:14:06;;;;;;;2.50;1.25;;;;;16.60;98977.00;;;;2078476;28;20901;-65
2024/01/05 00:15:07;;;;;;;2.60;1.07;;;;;16.70;98968.00;;;;2079242;28;20236;-65
2024/01/05 00:16:08;;;;;;;1.80;1.10;;;;;16.70;98971.00;;;;2078938;28;20469;-64
2024/01/05 00:17:08;;;;;;;2.80;1.07;;;;;16.70;98969.00;;;;2068089;28;20298;-64
2024/01/05 00:18:08;;;;;;;1.97;1.07;;;;;16.60;98974.00;;;;2077666;28;20215;-64
2024/01/05 00:19:09;;;;;;;2.27;1.50;;;;;16.70;98956.00;;;;2078013;28;20217;-64
2024/01/05 00:20:10;;;;;;;2.37;1.37;;;;;16.60;98963.00;;;;2072364;28;20653;-64
2024/01/05 00:21:21;;;;;;;1.88;0.90;;;;;16.70;98958.00;;;;2076633;28;20233;-64
2024/01/05 00:22:21;;;;;;;2.17;1.27;;;;;16.70;98954.00;;;;2057744;28;20677;-64
2024/01/05 00:23:21;;;;;;;2.50;1.23;;;;;16.60;98939.00;;;;2078626;28;20245;-64
2024/01/05 00:24:22;;;;;;;2.90;1.30;;;;;16.70;98951.00;;;;2071099;28;20276;-64
2024/01/05 00:25:22;;;;;;;1.80;0.77;;;;;16.70;98943.00;;;;2069998;28;20262;-64
2024/01/05 00:26:22;;;;;;;2.27;1.20;;;;;16.70;98942.00;;;;2075994;28;20906;-64
2024/01/05 00:27:22;;;;;;;2.87;1.13;;;;;16.70;98938.00;;;;2066090;28;20232;-64
2024/01/05 00:28:23;;;;;;;1.83;1.00;;;;;16.70;98943.00;;;;2081716;28;20217;-64
2024/01/05 00:29:23;;;;;;;3.03;1.33;;;;;16.70;98935.00;;;;2078845;28;20311;-64
2024/01/05 00:30:23;;;;;;;2.70;1.10;;;;;16.70;98946.00;;;;2078583;28;20217;-65
2024/01/05 00:31:24;;;;;;;2.97;1.20;;;;;16.70;98941.00;;;;2078926;28;20210;-65
2024/01/05 00:32:24;;;;;;;3.03;1.30;;;;;16.70;98941.00;;;;2062982;28;20242;-65
2024/01/05 00:33:25;;;;;;;2.23;0.90;;;;;16.70;98933.00;;;;2072219;28;20214;-65
2024/01/05 00:34:26;;;;;;;2.30;1.00;;;;;16.70;98930.00;;;;2075330;28;20265;-65
2024/01/05 00:35:26;;;;;;;2.10;1.20;;;;;16.70;98923.00;;;;2077111;28;20967;-65
2024/01/05 00:36:26;;;;;;;2.80;1.10;;;;;16.70;98931.00;;;;2070182;28;20222;-65
2024/01/05 00:37:27;;;;;;;2.20;0.90;;;;;16.70;98924.00;;;;2070339;28;20208;-65
2024/01/05 00:38:27;;;;;;;3.40;1.10;;;;;16.70;98911.00;;;;2087490;28;20240;-65
2024/01/05 00:39:27;;;;;;;2.30;1.20;;;;;16.70;98921.00;;;;2077565;28;20224;-65
2024/01/05 00:40:27;;;;;;;3.53;1.10;;;;;16.70;98910.00;;;;2070287;28;20245;-65
2024/01/05 00:41:28;;;;;;;2.37;1.40;;;;;16.70;98895.00;;;;2070767;28;20206;-65
2024/01/05 00:42:28;;;;;;;1.90;1.17;;;;;16.70;98908.00;;;;2065810;28;20722;-65
2024/01/05 00:43:28;;;;;;;2.10;1.10;;;;;16.70;98911.00;;;;2079168;28;20612;-65
2024/01/05 00:44:29;;;;;;;4.20;1.50;;;;;16.70;98914.00;;;;2073214;28;20694;-65
2024/01/05 00:45:29;;;;;;;2.43;1.13;;;;;16.70;98911.00;;;;2071714;28;20551;-65
2024/01/05 00:46:29;;;;;;;3.30;1.00;;;;;16.70;98913.00;;;;2069433;28;20564;-65
2024/01/05 00:47:30;;;;;;;2.27;0.80;;;;;16.60;98912.00;;;;2055504;28;20689;-65
2024/01/05 00:48:30;;;;;;;2.33;1.07;;;;;16.70;98912.00;;;;2072445;28;20233;-65
2024/01/05 00:49:30;;;;;;;3.73;1.40;;;;;16.70;98910.00;;;;2067516;28;20206;-65
2024/01/05 00:50:31;;;;;;;2.53;1.10;;;;;16.70;98916.00;;;;2069741;28;20240;-65
2024/01/05 00:51:31;;;;;;;3.00;1.00;;;;;16.70;98912.00;;;;2066758;28;20206;-65
2024/01/05 00:52:31;;;;;;;1.87;0.90;;;;;16.70;98917.00;;;;2054415;28;20219;-65
2024/01/05 00:53:32;;;;;;;2.73;1.00;;;;;16.60;98921.00;;;;2065547;28;20243;-65
2024/01/05 00:54:32;;;;;;;2.37;1.20;;;;;16.70;98912.00;;;;2070316;28;20203;-65
2024/01/05 00:55:32;;;;;;;2.10;1.10;;;;;16.70;98915.00;;;;2066407;28;20284;-65
2024/01/05 00:56:33;;;;;;;2.47;1.17;;;;;16.70;98911.00;;;;2073876;28;20214;-65
2024/01/05 00:57:33;;;;;;;2.60;1.10;;;;;16.70;98919.00;;;;2062172;28;20204;-65
2024/01/05 00:58:33;;;;;;;2.17;1.20;;;;;16.70;98919.00;;;;2070631;28;20370;-65
2024/01/05 00:59:33;;;;;;;3.23;1.17;;;;;16.70;98918.00;;;;2069911;28;20621;-65
2024/01/05 01:00:34;;;;;;;2.07;1.00;;;;;16.60;98912.00;;;;2065837;28;20207;-65
2024/01/05 01:01:34;;;;;;;2.30;1.00;;;;;16.70;98907.00;;;;2071919;28;20221;-65
2024/01/05 01:02:36;;;;;;;3.23;1.30;;;;;16.70;98914.00;;;;2057532;28;20246;-65
2024/01/05 01:03:36;;;;;;;2.00;1.20;;;;;16.70;98901.00;;;;2072262;28;20214;-65
2024/01/05 01:04:36;;;;;;;2.63;1.30;;;;;16.70;98906.00;;;;2065498;28;20221;-65
2024/01/05 01:05:37;;;;;;;3.13;1.37;;;;;16.70;98904.00;;;;2063589;28;20237;-65
2024/01/05 01:06:37;;;;;;;2.00;1.10;;;;;16.70;98904.00;;;;2064826;28;20219;-65
2024/01/05 01:07:39;;;;;;;2.87;1.30;;;;;16.70;98908.00;;;;2060518;28;20273;-65
2024/01/05 01:08:39;;;;;;;2.47;1.00;;;;;16.70;98907.00;;;;2067758;28;20307;-64
2024/01/05 01:09:39;;;;;;;3.60;1.57;;;;;16.70;98905.00;;;;2069817;28;20225;-64
2024/01/05 01:10:40;;;;;;;2.63;1.23;;;;;16.70;98906.00;;;;2071357;28;20234;-64
2024/01/05 01:11:40;;;;;;;2.00;0.90;;;;;16.70;98907.00;;;;2066971;28;20215;-65
2024/01/05 01:12:41;;;;;;;2.53;1.30;;;;;16.60;98899.00;;;;2062146;28;20340;-65
2024/01/05 01:13:41;;;;;;;2.27;1.20;;;;;16.60;98904.00;;;;2070558;28;20211;-65
2024/01/05 01:14:41;;;;;;;2.50;1.20;;;;;16.70;98902.00;;;;2068266;28;20290;-65
2024/01/05 01:15:42;;;;;;;1.87;0.90;;;;;16.70;98896.00;;;;2064956;28;20277;-65
2024/01/05 01:16:42;;;;;;;1.90;0.90;;;;;16.60;98897.00;;;;2070268;28;20215;-65
2024/01/05 01:17:42;;;;;;;3.83;1.57;;;;;16.70;98899.00;;;;2059785;28;20253;-65
2024/01/05 01:18:43;;;;;;;2.40;1.10;;;;;16.70;98893.00;;;;2070609;28;20704;-65
2024/01/05 01:19:43;;;;;;;1.50;0.90;;;;;16.60;98893.00;;;;2068986;28;20216;-65
2024/01/05 01:20:43;;;;;;;2.70;1.10;;;;;16.70;98889.00;;;;2070275;28;20635;-64
2024/01/05 01:21:44;;;;;;;3.00;1.00;;;;;16.70;98890.00;;;;2067682;28;20717;-64
2024/01/05 01:22:45;;;;;;;1.73;0.97;;;;;16.60;98886.00;;;;2053686;28;20250;-64
2024/01/05 01:23:45;;;;;;;2.45;1.10;;;;;16.70;98889.00;;;;2067677;28;20219;-64
2024/01/05 01:24:45;;;;;;;3.03;1.23;;;;;16.60;98892.00;;;;2066536;28;20238;-64
2024/01/05 01:25:46;;;;;;;2.30;1.10;;;;;16.70;98890.00;;;;2073651;28;20226;-64
2024/01/05 01:26:46;;;;;;;2.90;1.50;;;;;16.70;98892.00;;;;2068685;28;20225;-64
2024/01/05 01:27:46;;;;;;;3.93;1.20;;;;;16.70;98888.00;;;;2056653;28;20228;-64
2024/01/05 01:28:47;;;;;;;2.43;1.10;;;;;16.70;98896.00;;;;2073497;28;20242;-64
2024/01/05 01:29:47;;;;;;;3.43;1.23;;;;;16.70;98895.00;;;;2071506;28;20218;-64
2024/01/05 01:30:48;;;;;;;4.53;1.57;;;;;16.70;98892.00;;;;2067487;28;20264;-64
2024/01/05 01:31:48;;;;;;;2.90;1.20;;;;;16.70;98891.00;;;;2066503;28;20484;-64
2024/01/05 01:32:48;;;;;;;1.93;1.03;;;;;16.70;98886.00;;;;2067817;28;20218;-64
2024/01/05 01:33:49;;;;;;;4.73;1.47;;;;;16.70;98887.00;;;;2077717;28;20292;-64
2024/01/05 01:34:49;;;;;;;2.60;0.97;;;;;16.70;98887.00;;;;2067478;28;20226;-64
2024/01/05 01:35:50;;;;;;;4.40;1.20;;;;;16.60;98888.00;;;;2067086;28;20231;-64
2024/01/05 01:36:51;;;;;;;3.23;1.30;;;;;16.60;98878.00;;;;2066949;28;20222;-64
2024/01/05 01:37:51;;;;;;;3.50;1.30;;;;;16.60;98884.00;;;;2067539;28;20225;-64
2024/01/05 01:38:52;;;;;;;2.30;1.03;;;;;16.70;98880.00;;;;2067508;28;20497;-64
2024/01/05 01:39:52;;;;;;;2.47;1.07;;;;;16.60;98874.00;;;;2064197;28;20226;-64
2024/01/05 01:40:55;;;;;;;2.50;0.93;;;;;16.70;98880.00;;;;2067130;28;20218;-64
2024/01/05 01:41:55;;;;;;;2.17;1.15;;;;;16.40;98873.00;;;;2061714;28;20763;-64
2024/01/05 01:42:56;;;;;;;2.73;1.23;;;;;16.70;98870.00;;;;2069694;28;20222;-64
2024/01/05 01:43:56;;;;;;;2.63;1.20;;;;;16.70;98876.00;;;;2067180;28;20697;-64
2024/01/05 01:44:56;;;;;;;2.37;1.30;;;;;16.70;98878.00;;;;2064500;28;20672;-65
2024/01/05 01:46:00;;;;;;;4.20;1.30;;;;;16.70;98873.00;;;;2066920;28;20677;-65
2024/01/05 01:47:00;;;;;;;2.67;1.00;;;;;16.70;98873.00;;;;2045645;28;20227;-65
2024/01/05 01:48:00;;;;;;;2.10;0.97;;;;;16.70;98876.00;;;;2070791;28;20211;-65
2024/01/05 01:49:01;;;;;;;1.97;1.00;;;;;16.70;98878.00;;;;2066257;28;20262;-65
2024/01/05 01:50:01;;;;;;;1.93;1.00;;;;;16.70;98861.00;;;;2065778;28;20258;-65
2024/01/05 01:51:01;;;;;;;2.00;1.10;;;;;16.70;98869.00;;;;2071453;28;20289;-65
2024/01/05 01:52:02;;;;;;;2.97;0.90;;;;;16.70;98864.00;;;;2047534;28;20211;-65
2024/01/05 01:53:02;;;;;;;4.00;1.20;;;;;16.70;98860.00;;;;2058435;28;20314;-65
2024/01/05 01:54:04;;;;;;;2.03;1.10;;;;;16.60;98863.00;;;;2071132;28;20227;-65
2024/01/05 01:55:05;;;;;;;3.30;1.20;;;;;16.70;98862.00;;;;2072315;28;20214;-65
2024/01/05 01:56:10;;;;;;;2.33;0.93;;;;;16.60;98862.00;;;;2071238;28;20617;-65
2024/01/05 01:57:10;;;;;;;1.75;0.85;;;;;16.60;98820.00;;;;2055901;28;20548;-65
2024/01/05 01:58:11;;;;;;;2.47;0.80;;;;;16.60;98861.00;;;;2063798;28;20715;-65
2024/01/05 01:59:11;;;;;;;2.23;1.03;;;;;16.70;98858.00;;;;2053989;28;20254;-65
2024/01/05 02:00:13;;;;;;;3.53;1.37;;;;;16.70;98851.00;;;;2072219;28;20213;-65
2024/01/05 02:01:13;;;;;;;2.20;1.10;;;;;16.60;98862.00;;;;2061326;28;20348;-65
2024/01/05 02:02:13;;;;;;;1.87;0.80;;;;;16.60;98860.00;;;;2047557;28;20259;-65
2024/01/05 02:03:14;;;;;;;2.63;1.00;;;;;16.60;98853.00;;;;2053105;28;20789;-65
2024/01/05 02:04:15;;;;;;;2.33;1.10;;;;;16.60;98853.00;;;;2054988;28;20599;-64
2024/01/05 02:05:15;;;;;;;2.37;1.10;;;;;16.70;98853.00;;;;2068266;28;20226;-64
2024/01/05 02:06:15;;;;;;;3.07;1.10;;;;;16.70;98849.00;;;;2063132;28;20575;-64
2024/01/05 02:07:16;;;;;;;2.20;1.00;;;;;16.70;98850.00;;;;2047756;28;20255;-65
2024/01/05 02:08:16;;;;;;;3.00;1.03;;;;;16.70;98847.00;;;;2073641;28;20233;-65
2024/01/05 02:09:16;;;;;;;1.83;0.90;;;;;16.60;98851.00;;;;2065640;28;20235;-65
2024/01/05 02:10:18;;;;;;;3.30;1.20;;;;;16.70;98854.00;;;;2069697;28;20222;-64
2024/01/05 02:11:18;;;;;;;1.50;0.77;;;;;16.60;98855.00;;;;2065309;28;20239;-64
2024/01/05 02:12:18;;;;;;;2.03;0.90;;;;;16.60;98849.00;;;;2061865;28;20230;-64
2024/01/05 02:13:19;;;;;;;2.53;1.00;;;;;16.60;98805.00;;;;2075633;28;20214;-64
2024/01/05 02:14:19;;;;;;;2.37;0.97;;;;;16.60;98851.00;;;;2065258;28;20374;-64
2024/01/05 02:15:19;;;;;;;2.23;1.00;;;;;16.60;98849.00;;;;2071500;28;20242;-64
2024/01/05 02:16:20;;;;;;;2.73;0.90;;;;;16.60;98844.00;;;;2076750;28;20280;-64
2024/01/05 02:17:27;;;;;;;2.73;1.10;;;;;16.60;98793.00;;;;2064062;28;20588;-64
2024/01/05 02:18:27;;;;;;;2.63;1.10;;;;;16.70;98839.00;;;;2071778;28;20226;-64
2024/01/05 02:19:28;;;;;;;5.13;1.10;;;;;16.60;98839.00;;;;2070591;28;20216;-64
2024/01/05 02:20:28;;;;;;;2.17;1.13;;;;;16.60;98828.00;;;;2070565;28;20219;-64
2024/01/05 02:21:33;;;;;;;1.70;1.03;;;;;16.60;98828.00;;;;2072587;28;20341;-64
2024/01/05 02:22:34;;;;;;;2.08;1.05;;;;;16.60;98843.00;;;;2057101;28;20268;-64
2024/01/05 02:23:35;;;;;;;1.83;0.93;;;;;16.70;98841.00;;;;2064041;28;20707;-64
2024/01/05 02:24:35;;;;;;;1.87;0.93;;;;;16.70;98833.00;;;;2066866;28;20273;-64
2024/01/05 02:25:35;;;;;;;2.10;0.90;;;;;16.60;98827.00;;;;2072662;28;20203;-64
2024/01/05 02:26:36;;;;;;;2.40;1.10;;;;;16.70;98827.00;;;;2079927;28;20209;-64
2024/01/05 02:27:36;;;;;;;1.50;0.80;;;;;16.70;98830.00;;;;2060563;28;20221;-64
2024/01/05 02:28:37;;;;;;;2.50;1.13;;;;;16.60;98821.00;;;;2070335;28;20222;-64
2024/01/05 02:29:37;;;;;;;1.60;0.70;;;;;16.60;98819.00;;;;2079925;28;20294;-64
2024/01/05 02:30:37;;;;;;;2.90;1.10;;;;;16.60;98823.00;;;;2083071;28;20210;-64
2024/01/05 02:31:38;;;;;;;2.93;1.10;;;;;16.60;98820.00;;;;2073277;28;20213;-64
2024/01/05 02:32:38;;;;;;;1.97;0.80;;;;;16.60;98818.00;;;;2064260;28;20267;-64
2024/01/05 02:33:38;;;;;;;2.60;1.07;;;;;16.60;98816.00;;;;2072562;28;20254;-64
2024/01/05 02:34:39;;;;;;;2.33;1.07;;;;;16.60;98820.00;;;;2070265;28;20208;-64
2024/01/05 02:35:39;;;;;;;2.33;1.00;;;;;16.60;98828.00;;;;2072794;28;20202;-65
2024/01/05 02:36:39;;;;;;;1.93;1.00;;;;;16.60;98816.00;;;;2075205;28;20210;-64
2024/01/05 02:37:46;;;;;;;1.50;0.80;;;;;16.60;98821.00;;;;2068138;28;20585;-65
2024/01/05 02:38:46;;;;;;;2.45;1.00;;;;;16.60;98816.00;;;;2080604;28;20218;-65
2024/01/05 02:39:46;;;;;;;2.47;0.93;;;;;16.60;98812.00;;;;2080854;28;20219;-65
2024/01/05 02:40:47;;;;;;;2.27;0.90;;;;;16.60;98811.00;;;;2078922;28;20217;-65
2024/01/05 02:41:47;;;;;;;3.27;1.30;;;;;16.60;98813.00;;;;2080526;28;20210;-65
2024/01/05 02:42:47;;;;;;;2.50;1.20;;;;;16.60;98812.00;;;;2062911;28;20670;-65
2024/01/05 02:43:47;;;;;;;2.00;1.10;;;;;16.60;98803.00;;;;2073981;28;21057;-65
2024/01/05 02:44:48;;;;;;;1.70;0.80;;;;;16.70;98806.00;;;;2073960;28;20206;-65
2024/01/05 02:45:48;;;;;;;2.30;1.00;;;;;16.60;98802.00;;;;2071862;28;20591;-64
2024/01/05 02:46:48;;;;;;;1.70;0.80;;;;;16.70;98804.00;;;;2072624;28;20700;-65
2024/01/05 02:47:49;;;;;;;2.53;0.90;;;;;16.60;98794.00;;;;2077445;28;20736;-64
2024/01/05 02:48:49;;;;;;;1.50;0.80;;;;;16.60;98791.00;;;;2081851;28;20701;-64
2024/01/05 02:49:50;;;;;;;2.13;0.83;;;;;16.60;98796.00;;;;2072535;28;20707;-64
2024/01/05 02:50:50;;;;;;;2.67;1.23;;;;;16.60;98788.00;;;;2071884;28;20241;-65
2024/01/05 02:51:50;;;;;;;2.80;1.00;;;;;16.60;98785.00;;;;2070930;28;20226;-65
2024/01/05 02:52:51;;;;;;;1.50;0.70;;;;;16.60;98785.00;;;;2064077;28;22311;-65
2024/01/05 02:53:52;;;;;;;2.20;0.97;;;;;16.60;98787.00;;;;2075029;28;20214;-65
2024/01/05 02:54:52;;;;;;;2.15;1.15;;;;;16.60;98787.00;;;;2074903;28;20300;-65
2024/01/05 02:55:53;;;;;;;2.87;0.80;;;;;16.60;98779.00;;;;2077125;28;20210;-65
2024/01/05 02:56:53;;;;;;;1.80;0.80;;;;;16.60;98782.00;;;;2068274;28;20896;-65
2024/01/05 02:57:53;;;;;;;2.43;0.90;;;;;16.60;98780.00;;;;2078512;28;20210;-65
2024/01/05 02:58:54;;;;;;;1.83;0.87;;;;;16.60;98777.00;;;;2077698;28;20256;-65
2024/01/05 02:59:54;;;;;;;2.00;0.80;;;;;16.60;98784.00;;;;2073047;28;20214;-65
2024/01/05 03:00:54;;;;;;;2.43;1.00;;;;;16.60;98781.00;;;;2075262;28;20690;-65
2024/01/05 03:01:54;;;;;;;2.77;0.90;;;;;16.60;98785.00;;;;2068328;28;20225;-65
2024/01/05 03:02:56;;;;;;;2.93;1.30;;;;;16.60;98784.00;;;;2080503;28;20228;-64
2024/01/05 03:03:57;;;;;;;1.70;0.80;;;;;16.60;98781.00;;;;2074516;28;20234;-64
2024/01/05 03:04:58;;;;;;;2.80;0.80;;;;;16.60;98796.00;;;;2074479;28;20709;-64
2024/01/05 03:05:58;;;;;;;2.70;0.83;;;;;16.60;98786.00;;;;2075826;28;20301;-64
2024/01/05 03:06:58;;;;;;;1.93;1.10;;;;;16.60;98781.00;;;;2065955;28;20219;-64
2024/01/05 03:07:59;;;;;;;1.90;0.97;;;;;16.60;98782.00;;;;2083242;28;20252;-64
2024/01/05 03:08:59;;;;;;;1.90;0.83;;;;;16.60;98776.00;;;;2078977;28;20230;-65
2024/01/05 03:10:00;;;;;;;2.57;1.03;;;;;16.60;98783.00;;;;2075683;28;20223;-65
2024/01/05 03:11:00;;;;;;;1.80;0.70;;;;;16.60;98772.00;;;;2072367;28;20625;-65
2024/01/05 03:12:00;;;;;;;2.80;1.30;;;;;16.60;98773.00;;;;2067403;28;20213;-65
2024/01/05 03:13:01;;;;;;;2.37;1.03;;;;;16.60;98777.00;;;;2079274;28;20237;-65
2024/01/05 03:14:01;;;;;;;2.20;0.90;;;;;16.60;98774.00;;;;2076422;28;20214;-65
2024/01/05 03:15:02;;;;;;;1.93;0.90;;;;;16.60;98774.00;;;;2076590;28;20246;-65
2024/01/05 03:16:03;;;;;;;3.97;1.30;;;;;16.60;98770.00;;;;2072879;28;20221;-65
2024/01/05 03:17:03;;;;;;;3.43;0.80;;;;;16.60;98775.00;;;;2064713;28;20220;-65
2024/01/05 03:18:03;;;;;;;1.87;0.90;;;;;16.60;98768.00;;;;2076043;28;20464;-65
2024/01/05 03:19:04;;;;;;;3.70;0.87;;;;;16.60;98769.00;;;;2078903;28;20243;-64
2024/01/05 03:20:05;;;;;;;2.03;0.87;;;;;16.60;98760.00;;;;2076454;28;20217;-64
2024/01/05 03:21:06;;;;;;;2.42;0.80;;;;;16.60;98766.00;;;;2074974;28;20279;-64
2024/01/05 03:22:07;;;;;;;2.05;0.90;;;;;16.60;98769.00;;;;2065867;28;20229;-64
2024/01/05 03:23:07;;;;;;;2.33;1.10;;;;;16.60;98765.00;;;;2067365;28;20226;-64
2024/01/05 03:24:08;;;;;;;1.60;0.70;;;;;16.60;98763.00;;;;2081095;28;20230;-64
2024/01/05 03:25:08;;;;;;;2.57;1.10;;;;;16.60;98759.00;;;;2075384;28;20222;-64
2024/01/05 03:26:09;;;;;;;2.10;1.00;;;;;16.60;98765.00;;;;2078659;28;20234;-64
2024/01/05 03:27:13;;;;;;;4.83;0.90;;;;;16.60;98764.00;;;;2069333;28;20284;-64
2024/01/05 03:28:13;;;;;;;2.20;0.77;;;;;16.60;98762.00;;;;2080223;28;20580;-64
2024/01/05 03:29:13;;;;;;;3.50;1.10;;;;;16.60;98723.00;;;;2083368;28;20233;-64
2024/01/05 03:30:14;;;;;;;2.27;0.97;;;;;16.60;98759.00;;;;2079749;28;20217;-64
2024/01/05 03:31:14;;;;;;;1.93;0.90;;;;;16.60;98760.00;;;;2079383;28;20244;-64
2024/01/05 03:32:14;;;;;;;1.97;0.70;;;;;16.60;98752.00;;;;2070410;28;20889;-64
2024/01/05 03:33:15;;;;;;;2.60;1.00;;;;;16.60;98758.00;;;;2077565;28;20286;-65
2024/01/05 03:34:15;;;;;;;2.83;1.03;;;;;16.60;98760.00;;;;2080343;28;20225;-65
2024/01/05 03:35:15;;;;;;;2.27;0.97;;;;;16.60;98759.00;;;;2079819;28;20228;-65
2024/01/05 03:36:16;;;;;;;3.47;1.00;;;;;16.60;98764.00;;;;2082028;28;20232;-65
2024/01/05 03:37:16;;;;;;;3.60;1.00;;;;;16.60;98748.00;;;;2070039;28;20237;-65
2024/01/05 03:38:16;;;;;;;2.20;0.80;;;;;16.60;98752.00;;;;2078825;28;20222;-65
2024/01/05 03:39:17;;;;;;;2.30;1.00;;;;;16.60;98747.00;;;;2078900;28;20229;-64
2024/01/05 03:40:17;;;;;;;2.40;0.90;;;;;16.60;98745.00;;;;2079376;28;20224;-64
2024/01/05 03:41:17;;;;;;;1.80;0.80;;;;;16.60;98742.00;;;;2080040;28;20249;-64
2024/01/05 03:42:18;;;;;;;2.73;1.03;;;;;16.60;98750.00;;;;2069779;28;20248;-64
2024/01/05 03:43:18;;;;;;;2.43;1.20;;;;;16.60;98740.00;;;;2075805;28;20242;-64
2024/01/05 03:44:21;;;;;;;3.00;1.10;;;;;16.60;98739.00;;;;2077588;28;20242;-64
2024/01/05 03:45:21;;;;;;;1.73;0.70;;;;;16.60;98736.00;;;;2079756;28;20744;-64
2024/01/05 03:46:22;;;;;;;2.30;0.90;;;;;16.60;98734.00;;;;2080322;28;20206;-64
2024/01/05 03:47:22;;;;;;;2.60;0.90;;;;;16.60;98745.00;;;;2067879;28;20610;-64
2024/01/05 03:48:23;;;;;;;2.00;0.73;;;;;16.60;98735.00;;;;2073888;28;20214;-64
2024/01/05 03:49:23;;;;;;;2.40;0.90;;;;;16.60;98738.00;;;;2072684;28;20264;-64
2024/01/05 03:50:23;;;;;;;2.10;0.80;;;;;16.60;98739.00;;;;2078598;28;20722;-64
2024/01/05 03:51:24;;;;;;;2.43;0.70;;;;;16.60;98737.00;;;;2078424;28;20217;-64
2024/01/05 03:52:24;;;;;;;3.73;1.00;;;;;16.60;98736.00;;;;2068343;28;20233;-65
2024/01/05 03:53:24;;;;;;;2.10;1.00;;;;;16.60;98737.00;;;;2078980;28;20221;-64
2024/01/05 03:54:25;;;;;;;2.40;1.00;;;;;16.60;98733.00;;;;2082021;28;20227;-65
2024/01/05 03:55:25;;;;;;;3.20;1.10;;;;;16.60;98736.00;;;;2081495;28;20217;-65
2024/01/05 03:56:26;;;;;;;3.40;1.10;;;;;16.60;98729.00;;;;2079565;28;20368;-65
2024/01/05 03:57:26;;;;;;;1.73;0.83;;;;;16.60;98726.00;;;;2068653;28;20229;-65
2024/01/05 03:58:28;;;;;;;1.67;0.83;;;;;16.60;98715.00;;;;2073705;28;20242;-65
2024/01/05 03:59:28;;;;;;;3.55;0.70;;;;;16.60;98730.00;;;;2078337;28;20237;-65
2024/01/05 04:00:28;;;;;;;2.40;1.00;;;;;16.60;98724.00;;;;2079727;28;20639;-65
2024/01/05 04:01:29;;;;;;;1.73;0.83;;;;;16.60;98717.00;;;;2078376;28;20706;-65
2024/01/05 04:02:29;;;;;;;2.00;0.97;;;;;16.60;98719.00;;;;2067381;28;20225;-65
2024/01/05 04:03:29;;;;;;;2.00;1.17;;;;;16.60;98725.00;;;;2077729;28;20224;-65
2024/01/05 04:04:30;;;;;;;2.20;0.90;;;;;16.60;98725.00;;;;2078642;28;20310;-65
2024/01/05 04:05:30;;;;;;;2.00;0.77;;;;;16.60;98722.00;;;;2079213;28;20218;-65
2024/01/05 04:06:30;;;;;;;3.60;1.00;;;;;16.60;98715.00;;;;2079015;28;20220;-65
2024/01/05 04:07:31;;;;;;;2.73;1.10;;;;;16.60;98732.00;;;;2070115;28;20226;-64
2024/01/05 04:08:31;;;;;;;1.77;0.57;;;;;16.60;98722.00;;;;2077060;28;20229;-64
2024/01/05 04:09:31;;;;;;;1.50;0.73;;;;;16.60;98725.00;;;;2080123;28;20218;-64
2024/01/05 04:10:32;;;;;;;2.90;0.93;;;;;16.60;98729.00;;;;2077894;28;21773;-64
2024/01/05 04:11:33;;;;;;;2.13;0.90;;;;;16.60;98724.00;;;;2080459;28;20264;-64
2024/01/05 04:12:33;;;;;;;1.73;0.82;;;;;16.60;98717.00;;;;2070153;28;20209;-64
2024/01/05 04:13:34;;;;;;;1.93;0.80;;;;;16.60;98722.00;;;;2084204;28;20213;-64
2024/01/05 04:14:35;;;;;;;3.30;1.17;;;;;16.60;98719.00;;;;2079645;28;20217;-64
2024/01/05 04:15:36;;;;;;;1.43;0.70;;;;;16.60;98716.00;;;;2080735;28;20217;-64
2024/01/05 04:16:36;;;;;;;1.80;0.80;;;;;16.60;98712.00;;;;2079251;28;20548;-64
2024/01/05 04:17:36;;;;;;;2.00;0.60;;;;;16.60;98716.00;;;;2070235;28;20245;-64
2024/01/05 04:18:37;;;;;;;2.30;1.00;;;;;16.60;98716.00;;;;2079416;28;20225;-64
2024/01/05 04:19:37;;;;;;;2.50;0.90;;;;;16.60;98712.00;;;;2079841;28;20294;-64
2024/01/05 04:20:37;;;;;;;1.83;0.87;;;;;16.60;98713.00;;;;2079392;28;20226;-64
2024/01/05 04:21:38;;;;;;;1.63;0.80;;;;;16.60;98714.00;;;;2078739;28;20248;-64
2024/01/05 04:22:38;;;;;;;3.00;1.00;;;;;16.60;98708.00;;;;2070271;28;20223;-64
2024/01/05 04:23:38;;;;;;;2.30;0.97;;;;;16.60;98709.00;;;;2080404;28;20217;-64
2024/01/05 04:24:39;;;;;;;2.87;1.07;;;;;16.60;98716.00;;;;2080061;28;20642;-64
2024/01/05 04:25:39;;;;;;;2.20;0.93;;;;;16.60;98710.00;;;;2079045;28;20701;-64
2024/01/05 04:26:39;;;;;;;3.33;0.80;;;;;16.60;98711.00;;;;2080092;28;20724;-64
2024/01/05 04:27:39;;;;;;;2.20;1.00;;;;;16.60;98713.00;;;;2073100;28;20229;-64
2024/01/05 04:28:40;;;;;;;2.60;0.80;;;;;16.60;98699.00;;;;2068874;28;20223;-64
2024/01/05 04:29:40;;;;;;;1.63;0.80;;;;;16.60;98717.00;;;;2080255;28;20221;-64
2024/01/05 04:30:40;;;;;;;2.20;1.00;;;;;16.60;98720.00;;;;2078706;28;20232;-65
2024/01/05 04:31:41;;;;;;;2.13;0.87;;;;;16.60;98713.00;;;;2077568;28;20230;-65
2024/01/05 04:32:42;;;;;;;1.47;0.90;;;;;16.60;98714.00;;;;2069494;28;20214;-65
2024/01/05 04:33:42;;;;;;;3.00;1.10;;;;;16.60;98715.00;;;;2070800;28;20268;-65
2024/01/05 04:34:43;;;;;;;1.93;0.80;;;;;16.60;98713.00;;;;2076819;28;20267;-65
2024/01/05 04:35:46;;;;;;;3.00;0.93;;;;;16.60;98709.00;;;;2078622;28;20209;-65
2024/01/05 04:36:46;;;;;;;2.85;0.70;;;;;16.60;98705.00;;;;2075144;28;20214;-65
2024/01/05 04:37:46;;;;;;;2.07;0.90;;;;;16.60;98707.00;;;;2069977;28;20213;-65
2024/01/05 04:38:47;;;;;;;3.57;1.00;;;;;16.60;98707.00;;;;2079161;28;20221;-65
2024/01/05 04:39:47;;;;;;;1.60;0.80;;;;;16.60;98707.00;;;;2076443;28;20217;-65
2024/01/05 04:40:47;;;;;;;2.90;0.83;;;;;16.60;98704.00;;;;2078260;28;20220;-64
2024/01/05 04:41:48;;;;;;;2.20;0.90;;;;;16.60;98694.00;;;;2074619;28;20213;-64
2024/01/05 04:42:48;;;;;;;3.00;1.00;;;;;16.60;98704.00;;;;2061077;28;20249;-64
2024/01/05 04:43:50;;;;;;;3.23;0.83;;;;;16.60;98702.00;;;;2073623;28;20703;-64
2024/01/05 04:44:50;;;;;;;2.67;0.93;;;;;16.60;98698.00;;;;2078327;28;20210;-64
2024/01/05 04:45:51;;;;;;;2.40;0.90;;;;;16.60;98694.00;;;;2079716;28;20210;-64
2024/01/05 04:46:51;;;;;;;2.13;0.97;;;;;16.60;98694.00;;;;2083434;28;20211;-65
2024/01/05 04:47:51;;;;;;;2.90;1.00;;;;;16.60;98697.00;;;;2073578;28;20222;-65
2024/01/05 04:48:51;;;;;;;2.17;1.03;;;;;16.60;98692.00;;;;2077772;28;20219;-65
2024/01/05 04:49:52;;;;;;;2.73;0.80;;;;;16.60;98688.00;;;;2080068;28;20210;-65
2024/01/05 04:50:52;;;;;;;2.60;1.10;;;;;16.60;98690.00;;;;2079354;28;20235;-65
2024/01/05 04:51:52;;;;;;;2.43;0.83;;;;;16.60;98687.00;;;;2068650;28;20221;-65
2024/01/05 04:52:53;;;;;;;2.63;0.90;;;;;16.60;98686.00;;;;2078503;28;20251;-65
2024/01/05 04:53:53;;;;;;;2.30;1.10;;;;;16.60;98681.00;;;;2079666;28;20202;-64
2024/01/05 04:54:54;;;;;;;1.67;0.93;;;;;16.60;98676.00;;;;2080009;28;20316;-64
2024/01/05 04:55:54;;;;;;;2.00;0.87;;;;;16.60;98680.00;;;;2079018;28;20279;-64
2024/01/05 04:56:54;;;;;;;2.20;0.90;;;;;16.60;98685.00;;;;2069931;28;20251;-64
2024/01/05 04:57:55;;;;;;;2.33;1.03;;;;;16.60;98683.00;;;;2077147;28;20687;-64
2024/01/05 04:58:55;;;;;;;1.97;0.80;;;;;16.60;98685.00;;;;2079850;28;20701;-64
2024/01/05 04:59:55;;;;;;;2.30;1.00;;;;;16.60;98681.00;;;;2079766;28;20619;-64
2024/01/05 05:00:56;;;;;;;3.47;1.00;;;;;16.60;98684.00;;;;2082090;28;20592;-64
2024/01/05 05:01:56;;;;;;;2.37;0.90;;;;;16.60;98677.00;;;;2067335;28;20209;-64
2024/01/05 05:02:56;;;;;;;2.67;1.00;;;;;16.60;98675.00;;;;2079921;28;20877;-64
2024/01/05 05:03:57;;;;;;;2.33;0.70;;;;;16.60;98674.00;;;;2079924;28;20210;-64